Back to Top

Language: 

My Weather Underground Personal Weather Station Historical Data with Graphs...

Delerius Weather Station Historical Data
Daily Summary for February 8, 2018 Units:  English    Metric   Both
« Previous Day
Next Day »
Daily Weekly Monthly Yearly Custom
  High: Low: Average:
Temperature: 45.9 °F 33.4 °F 41.5 °F
Dew Point: 42.7 °F 29.9 °F 38.2 °F
Humidity: 93 % 83 % 88 %
Wind Speed: 19.0 mph 0.0 mph 8 mph
Wind Gust: 30.0 mph - -
Wind:- - SSW
Pressure: 30.07 in 29.64 in -
Precipitation: 0.15 in    
Historical Graphs
 
 
Tabular Data for February 8, 2018
Time Temperature Dew Point Pressure Wind Wind Speed Wind Gust Humidity Rainfall Rate (Hourly) solar Conditions
00:03 33.4 °F 30.0 °F 30.07 in Calm     87 % 0.00 in 0 W/m2
00:08 33.6 °F 29.9 °F 30.06 in Calm     86 % 0.00 in 0 W/m2
00:13 33.8 °F 30.1 °F 30.06 in Calm     86 % 0.00 in 0 W/m2
00:18 33.8 °F 30.1 °F 30.06 in Calm     86 % 0.00 in 0 W/m2
00:23 34.0 °F 30.2 °F 30.06 in Calm   1.0 mph 86 % 0.00 in 0 W/m2
00:28 34.0 °F 30.2 °F 30.06 in Calm     86 % 0.00 in 0 W/m2
00:33 33.8 °F 30.1 °F 30.06 in Calm     86 % 0.00 in 0 W/m2
00:38 33.8 °F 30.1 °F 30.06 in Calm     86 % 0.00 in 0 W/m2
00:43 33.8 °F 30.1 °F 30.06 in Calm     86 % 0.00 in 0 W/m2
00:48 33.8 °F 30.1 °F 30.06 in Calm     86 % 0.00 in 0 W/m2
00:53 33.8 °F 30.1 °F 30.06 in Calm     86 % 0.00 in 0 W/m2
00:58 33.8 °F 30.1 °F 30.06 in Calm   1.0 mph 86 % 0.00 in 0 W/m2
01:03 34.0 °F 30.5 °F 30.05 in Calm   1.0 mph 87 % 0.00 in 0 W/m2
01:08 34.0 °F 30.5 °F 30.05 in Calm   1.0 mph 87 % 0.00 in 0 W/m2
01:13 34.0 °F 30.2 °F 30.05 in Calm     86 % 0.00 in 0 W/m2
01:19 34.0 °F 30.2 °F 30.05 in Calm     86 % 0.00 in 0 W/m2
01:24 34.0 °F 30.2 °F 30.05 in Calm     86 % 0.00 in 0 W/m2
01:29 34.0 °F 30.2 °F 30.05 in Calm   1.0 mph 86 % 0.00 in 0 W/m2
01:34 34.0 °F 30.2 °F 30.04 in Calm     86 % 0.00 in 0 W/m2
01:39 34.0 °F 30.5 °F 30.04 in Calm     87 % 0.00 in 0 W/m2
01:44 34.0 °F 30.5 °F 30.04 in Calm     87 % 0.00 in 0 W/m2
01:49 34.0 °F 30.5 °F 30.04 in Calm   2.0 mph 87 % 0.00 in 0 W/m2
01:54 34.0 °F 30.5 °F 30.03 in Calm     87 % 0.00 in 0 W/m2
01:59 34.0 °F 30.5 °F 30.03 in Calm     87 % 0.00 in 0 W/m2
02:04 34.0 °F 30.5 °F 30.03 in Calm     87 % 0.00 in 0 W/m2
02:09 34.0 °F 30.5 °F 30.02 in South 1.0 mph 2.0 mph 87 % 0.00 in 0 W/m2
02:14 34.0 °F 30.5 °F 30.02 in SSE 1.0 mph 5.0 mph 87 % 0.00 in 0 W/m2
02:19 34.2 °F 30.7 °F 30.02 in SE 3.0 mph 6.0 mph 87 % 0.00 in 0 W/m2
02:24 34.2 °F 30.7 °F 30.02 in Calm     87 % 0.00 in 0 W/m2
02:29 34.2 °F 30.7 °F 30.01 in SE 2.0 mph 4.0 mph 87 % 0.00 in 0 W/m2
02:34 34.2 °F 30.7 °F 30.01 in Calm   2.0 mph 87 % 0.00 in 0 W/m2
02:39 34.2 °F 30.7 °F 30.01 in Calm     87 % 0.00 in 0 W/m2
02:44 34.2 °F 30.7 °F 30.01 in NE 1.0 mph 4.0 mph 87 % 0.00 in 0 W/m2
02:49 34.3 °F 30.9 °F 30.01 in Calm     87 % 0.00 in 0 W/m2
02:54 34.3 °F 30.9 °F 30.01 in Calm     87 % 0.00 in 0 W/m2
02:59 34.3 °F 30.6 °F 30.00 in Calm     86 % 0.00 in 0 W/m2
03:04 34.3 °F 30.6 °F 30.00 in Calm     86 % 0.00 in 0 W/m2
03:09 34.5 °F 31.0 °F 30.00 in SSW 2.0 mph 6.0 mph 87 % 0.00 in 0 W/m2
03:14 34.9 °F 31.4 °F 30.00 in SW 2.0 mph 6.0 mph 87 % 0.00 in 0 W/m2
03:19 35.1 °F 31.6 °F 29.99 in West 1.0 mph 4.0 mph 87 % 0.00 in 0 W/m2
03:24 35.2 °F 31.8 °F 29.99 in SSW 3.0 mph 8.0 mph 87 % 0.00 in 0 W/m2
03:29 35.8 °F 32.3 °F 29.99 in SSW 6.0 mph 9.0 mph 87 % 0.00 in 0 W/m2
03:34 36.1 °F 32.6 °F 29.99 in SW 5.0 mph 8.0 mph 87 % 0.00 in 0 W/m2
03:39 36.7 °F 32.9 °F 29.99 in SSW 4.0 mph 7.0 mph 86 % 0.00 in 0 W/m2
03:44 36.7 °F 32.9 °F 29.99 in South 4.0 mph 6.0 mph 86 % 0.00 in 0 W/m2
03:49 36.9 °F 32.8 °F 29.99 in SSW 3.0 mph 5.0 mph 85 % 0.00 in 0 W/m2
03:54 36.9 °F 32.8 °F 29.99 in South 2.0 mph 4.0 mph 85 % 0.00 in 0 W/m2
03:59 36.9 °F 32.8 °F 29.99 in South 2.0 mph 5.0 mph 85 % 0.00 in 0 W/m2
04:04 36.9 °F 32.8 °F 29.99 in Calm   3.0 mph 85 % 0.00 in 0 W/m2
04:09 36.9 °F 32.8 °F 29.99 in Calm   1.0 mph 85 % 0.00 in 0 W/m2
04:14 36.9 °F 32.8 °F 29.99 in South 1.0 mph 5.0 mph 85 % 0.00 in 0 W/m2
04:19 36.9 °F 32.8 °F 29.98 in SSW 4.0 mph 7.0 mph 85 % 0.00 in 0 W/m2
04:24 37.0 °F 32.9 °F 29.98 in SSW 3.0 mph 6.0 mph 85 % 0.00 in 0 W/m2
04:29 37.2 °F 33.1 °F 29.98 in South 4.0 mph 8.0 mph 85 % 0.00 in 0 W/m2
04:34 37.2 °F 33.1 °F 29.98 in South 5.0 mph 8.0 mph 85 % 0.00 in 0 W/m2
04:39 37.6 °F 33.5 °F 29.98 in SSW 2.0 mph 5.0 mph 85 % 0.00 in 0 W/m2
04:44 37.6 °F 33.5 °F 29.98 in South 1.0 mph 2.0 mph 85 % 0.00 in 0 W/m2
04:49 37.6 °F 33.5 °F 29.99 in South 2.0 mph 7.0 mph 85 % 0.00 in 0 W/m2
04:54 37.6 °F 33.5 °F 29.98 in SSW 3.0 mph 8.0 mph 85 % 0.00 in 0 W/m2
04:59 37.4 °F 33.3 °F 29.98 in South 5.0 mph 8.0 mph 85 % 0.00 in 0 W/m2
05:04 37.4 °F 33.3 °F 29.98 in South 4.0 mph 6.0 mph 85 % 0.00 in 0 W/m2
05:09 37.4 °F 33.6 °F 29.98 in South 5.0 mph 9.0 mph 86 % 0.00 in 0 W/m2
05:14 37.6 °F 33.8 °F 29.98 in South 5.0 mph 7.0 mph 86 % 0.00 in 0 W/m2
05:19 37.8 °F 33.9 °F 29.98 in South 5.0 mph 8.0 mph 86 % 0.00 in 0 W/m2
05:24 37.8 °F 33.9 °F 29.98 in SSE 3.0 mph 5.0 mph 86 % 0.00 in 0 W/m2
05:29 37.9 °F 34.1 °F 29.98 in SSE 5.0 mph 10.0 mph 86 % 0.00 in 0 W/m2
05:34 37.9 °F 34.1 °F 29.97 in SSE 2.0 mph 7.0 mph 86 % 0.00 in 0 W/m2
05:39 37.8 °F 33.9 °F 29.97 in SSE 5.0 mph 8.0 mph 86 % 0.00 in 0 W/m2
05:44 37.9 °F 34.1 °F 29.97 in SSE 4.0 mph 11.0 mph 86 % 0.00 in 0 W/m2
05:49 37.9 °F 34.4 °F 29.97 in SSE 8.0 mph 10.0 mph 87 % 0.00 in 0 W/m2
05:54 37.9 °F 34.4 °F 29.97 in SSE 7.0 mph 9.0 mph 87 % 0.00 in 0 W/m2
05:59 38.1 °F 34.6 °F 29.97 in SSE 7.0 mph 10.0 mph 87 % 0.00 in 0 W/m2
06:04 38.3 °F 34.8 °F 29.97 in SSE 6.0 mph 11.0 mph 87 % 0.00 in 0 W/m2
06:09 38.3 °F 34.8 °F 29.96 in South 5.0 mph 7.0 mph 87 % 0.00 in 0 W/m2
06:14 38.1 °F 34.6 °F 29.96 in SE 5.0 mph 8.0 mph 87 % 0.00 in 0 W/m2
06:19 38.1 °F 34.6 °F 29.96 in SSE 4.0 mph 7.0 mph 87 % 0.00 in 0 W/m2
06:24 37.9 °F 34.4 °F 29.96 in SSE 2.0 mph 5.0 mph 87 % 0.00 in 0 W/m2
06:29 37.9 °F 34.7 °F 29.95 in SSE 2.0 mph 4.0 mph 88 % 0.00 in 0 W/m2
06:34 37.8 °F 34.5 °F 29.95 in SSE 2.0 mph 5.0 mph 88 % 0.00 in 0 W/m2
06:40 37.8 °F 34.5 °F 29.95 in SE 3.0 mph 6.0 mph 88 % 0.00 in 0 W/m2
06:45 37.6 °F 34.3 °F 29.95 in Calm     88 % 0.00 in 0 W/m2
06:50 37.8 °F 34.8 °F 29.95 in South 4.0 mph 7.0 mph 89 % 0.00 in 0 W/m2
06:55 37.8 °F 34.8 °F 29.94 in South 1.0 mph 4.0 mph 89 % 0.00 in 0 W/m2
07:00 37.9 °F 35.0 °F 29.94 in SSE 1.0 mph 5.0 mph 89 % 0.00 in 0 W/m2
07:05 37.9 °F 35.0 °F 29.94 in South 3.0 mph 7.0 mph 89 % 0.00 in 0 W/m2
07:10 37.9 °F 35.0 °F 29.94 in Calm   4.0 mph 89 % 0.00 in 0 W/m2
07:15 37.9 °F 35.0 °F 29.94 in Calm   1.0 mph 89 % 0.00 in 0 W/m2
07:20 37.9 °F 35.0 °F 29.94 in South 1.0 mph 5.0 mph 89 % 0.00 in 0 W/m2
07:25 37.9 °F 35.0 °F 29.94 in South 3.0 mph 5.0 mph 89 % 0.00 in 0 W/m2
07:30 37.9 °F 35.0 °F 29.94 in SSW 2.0 mph 5.0 mph 89 % 0.00 in 0 W/m2
07:35 37.9 °F 35.0 °F 29.94 in SSW 2.0 mph 5.0 mph 89 % 0.00 in 0 W/m2
07:40 37.9 °F 35.3 °F 29.94 in SW 3.0 mph 5.0 mph 90 % 0.00 in 5 W/m2
07:45 37.9 °F 35.3 °F 29.94 in SSW 5.0 mph 7.0 mph 90 % 0.00 in 7 W/m2
07:50 37.9 °F 35.3 °F 29.94 in SW 5.0 mph 7.0 mph 90 % 0.00 in 9 W/m2
07:55 38.1 °F 35.4 °F 29.94 in SSW 4.0 mph 9.0 mph 90 % 0.00 in 11 W/m2
08:00 38.5 °F 36.1 °F 29.94 in SW 5.0 mph 9.0 mph 91 % 0.00 in 14 W/m2
08:05 38.7 °F 36.0 °F 29.94 in SSW 5.0 mph 8.0 mph 90 % 0.00 in 14 W/m2
08:10 38.8 °F 36.2 °F 29.94 in SSW 2.0 mph 6.0 mph 90 % 0.00 in 16 W/m2
08:15 38.8 °F 35.9 °F 29.94 in SSE 3.0 mph 7.0 mph 89 % 0.00 in 18 W/m2
08:20 38.7 °F 35.7 °F 29.94 in SSE 4.0 mph 6.0 mph 89 % 0.00 in 19 W/m2
08:25 38.3 °F 35.3 °F 29.93 in SE 6.0 mph 8.0 mph 89 % 0.00 in 23 W/m2
08:30 38.1 °F 35.2 °F 29.93 in SE 4.0 mph 6.0 mph 89 % 0.00 in 26 W/m2
08:35 37.9 °F 35.0 °F 29.93 in Calm   1.0 mph 89 % 0.00 in 30 W/m2
08:40 37.9 °F 35.3 °F 29.93 in Calm     90 % 0.00 in 35 W/m2
08:45 37.8 °F 35.1 °F 29.93 in Calm     90 % 0.00 in 56 W/m2
08:50 37.9 °F 35.3 °F 29.93 in SSW 5.0 mph 7.0 mph 90 % 0.00 in 69 W/m2
08:55 38.7 °F 36.5 °F 29.93 in SSW 4.0 mph 8.0 mph 92 % 0.00 in 72 W/m2
09:00 39.4 °F 37.2 °F 29.93 in SSW 7.0 mph 10.0 mph 92 % 0.00 in 79 W/m2
09:05 39.9 °F 37.5 °F 29.93 in SSW 4.0 mph 7.0 mph 91 % 0.00 in 111 W/m2
09:10 40.3 °F 37.9 °F 29.93 in SSW 6.0 mph 9.0 mph 91 % 0.00 in 84 W/m2
09:15 40.3 °F 37.6 °F 29.93 in South 5.0 mph 9.0 mph 90 % 0.00 in 98 W/m2
09:20 40.3 °F 37.6 °F 29.93 in SSW 3.0 mph 6.0 mph 90 % 0.00 in 109 W/m2
09:25 40.5 °F 37.8 °F 29.93 in SSW 2.0 mph 5.0 mph 90 % 0.00 in 111 W/m2
09:30 40.6 °F 37.9 °F 29.93 in SSW 3.0 mph 6.0 mph 90 % 0.00 in 118 W/m2
09:35 41.0 °F 38.3 °F 29.93 in South 4.0 mph 7.0 mph 90 % 0.00 in 132 W/m2
09:40 41.5 °F 38.8 °F 29.93 in South 4.0 mph 8.0 mph 90 % 0.00 in 151 W/m2
09:45 41.9 °F 39.2 °F 29.92 in SSE 4.0 mph 8.0 mph 90 % 0.00 in 172 W/m2
09:50 42.3 °F 39.5 °F 29.92 in SSE 5.0 mph 8.0 mph 90 % 0.00 in 155 W/m2
09:55 42.8 °F 39.8 °F 29.92 in SSE 4.0 mph 6.0 mph 89 % 0.00 in 123 W/m2
10:00 43.2 °F 40.1 °F 29.92 in ESE 5.0 mph 7.0 mph 89 % 0.00 in 98 W/m2
10:05 43.3 °F 40.0 °F 29.92 in SSE 1.0 mph 4.0 mph 88 % 0.00 in 88 W/m2
10:10 43.5 °F 40.2 °F 29.92 in SSW 5.0 mph 11.0 mph 88 % 0.00 in 90 W/m2
10:15 43.5 °F 39.9 °F 29.92 in SW 5.0 mph 12.0 mph 87 % 0.00 in 97 W/m2
10:20 43.7 °F 40.1 °F 29.92 in SW 4.0 mph 10.0 mph 87 % 0.00 in 111 W/m2
10:25 43.7 °F 40.1 °F 29.91 in SW 7.0 mph 13.0 mph 87 % 0.00 in 135 W/m2
10:30 43.7 °F 40.1 °F 29.91 in SSW 4.0 mph 7.0 mph 87 % 0.00 in 172 W/m2
10:35 43.9 °F 40.3 °F 29.91 in SW 8.0 mph 13.0 mph 87 % 0.00 in 206 W/m2
10:40 44.1 °F 40.4 °F 29.91 in SW 3.0 mph 7.0 mph 87 % 0.00 in 260 W/m2
10:45 44.2 °F 40.3 °F 29.90 in WSW 8.0 mph 16.0 mph 86 % 0.00 in 188 W/m2
10:50 44.4 °F 40.5 °F 29.90 in WSW 4.0 mph 9.0 mph 86 % 0.00 in 197 W/m2
10:55 44.6 °F 40.4 °F 29.90 in SW 10.0 mph 18.0 mph 85 % 0.00 in 276 W/m2
11:00 45.0 °F 40.7 °F 29.90 in SW 8.0 mph 13.0 mph 85 % 0.00 in 202 W/m2
11:05 45.0 °F 40.4 °F 29.90 in WSW 10.0 mph 20.0 mph 84 % 0.00 in 288 W/m2
11:11 45.1 °F 40.6 °F 29.90 in SW 6.0 mph 19.0 mph 84 % 0.00 in 264 W/m2
11:16 45.1 °F 40.6 °F 29.90 in SW 6.0 mph 11.0 mph 84 % 0.00 in 329 W/m2
11:21 45.3 °F 40.8 °F 29.90 in SW 10.0 mph 19.0 mph 84 % 0.00 in 327 W/m2
11:26 45.7 °F 41.1 °F 29.89 in SW 10.0 mph 20.0 mph 84 % 0.00 in 304 W/m2
11:31 45.7 °F 40.8 °F 29.90 in SW 11.0 mph 21.0 mph 83 % 0.00 in 308 W/m2
11:36 45.7 °F 40.8 °F 29.89 in SW 9.0 mph 20.0 mph 83 % 0.00 in 241 W/m2
11:41 45.9 °F 41.0 °F 29.89 in WSW 10.0 mph 14.0 mph 83 % 0.00 in 229 W/m2
11:46 45.9 °F 41.0 °F 29.89 in SW 10.0 mph 20.0 mph 83 % 0.00 in 251 W/m2
11:51 45.9 °F 41.0 °F 29.89 in SW 9.0 mph 15.0 mph 83 % 0.00 in 165 W/m2
11:56 45.9 °F 41.0 °F 29.88 in WSW 7.0 mph 13.0 mph 83 % 0.00 in 153 W/m2
12:01 45.7 °F 41.1 °F 29.88 in SW 9.0 mph 15.0 mph 84 % 0.00 in 171 W/m2
12:06 45.3 °F 40.8 °F 29.88 in SW 15.0 mph 22.0 mph 84 % 0.00 in 181 W/m2
12:11 45.1 °F 40.6 °F 29.87 in SW 15.0 mph 27.0 mph 84 % 0.00 in 206 W/m2
12:16 45.3 °F 40.8 °F 29.87 in SW 14.0 mph 22.0 mph 84 % 0.00 in 251 W/m2
12:21 45.7 °F 41.4 °F 29.87 in SW 11.0 mph 22.0 mph 85 % 0.00 in 260 W/m2
12:26 45.9 °F 41.3 °F 29.87 in SW 16.0 mph 24.0 mph 84 % 0.00 in 239 W/m2
12:31 45.9 °F 41.3 °F 29.87 in WSW 15.0 mph 22.0 mph 84 % 0.00 in 250 W/m2
12:36 45.9 °F 41.3 °F 29.86 in SW 13.0 mph 21.0 mph 84 % 0.00 in 199 W/m2
12:41 45.9 °F 41.3 °F 29.86 in SW 15.0 mph 22.0 mph 84 % 0.00 in 162 W/m2
12:46 45.7 °F 41.1 °F 29.86 in SW 13.0 mph 20.0 mph 84 % 0.00 in 158 W/m2
12:51 45.5 °F 40.9 °F 29.86 in SW 13.0 mph 23.0 mph 84 % 0.00 in 167 W/m2
12:56 45.3 °F 40.8 °F 29.86 in SW 12.0 mph 19.0 mph 84 % 0.00 in 163 W/m2
13:01 45.3 °F 40.8 °F 29.86 in SW 12.0 mph 21.0 mph 84 % 0.00 in 155 W/m2
13:06 45.3 °F 40.8 °F 29.86 in SW 17.0 mph 26.0 mph 84 % 0.00 in 158 W/m2
13:11 45.3 °F 40.8 °F 29.85 in SW 12.0 mph 19.0 mph 84 % 0.00 in 158 W/m2
13:16 45.3 °F 40.8 °F 29.86 in SW 17.0 mph 24.0 mph 84 % 0.00 in 155 W/m2
13:21 45.3 °F 41.1 °F 29.85 in SW 10.0 mph 18.0 mph 85 % 0.00 in 148 W/m2
13:26 45.3 °F 41.1 °F 29.85 in SW 11.0 mph 16.0 mph 85 % 0.00 in 148 W/m2
13:31 45.1 °F 40.6 °F 29.85 in SW 16.0 mph 23.0 mph 84 % 0.00 in 155 W/m2
13:36 45.0 °F 40.7 °F 29.84 in SW 18.0 mph 28.0 mph 85 % 0.00 in 162 W/m2
13:41 45.0 °F 40.7 °F 29.84 in SW 13.0 mph 21.0 mph 85 % 0.00 in 160 W/m2
13:46 45.0 °F 40.7 °F 29.84 in SW 18.0 mph 27.0 mph 85 % 0.00 in 160 W/m2
13:51 45.0 °F 40.7 °F 29.84 in SW 15.0 mph 23.0 mph 85 % 0.00 in 158 W/m2
13:56 45.1 °F 40.9 °F 29.84 in SW 17.0 mph 26.0 mph 85 % 0.00 in 162 W/m2
14:01 45.3 °F 41.1 °F 29.83 in SW 17.0 mph 27.0 mph 85 % 0.00 in 237 W/m2
14:06 45.3 °F 41.1 °F 29.83 in SW 18.0 mph 28.0 mph 85 % 0.00 in 158 W/m2
14:11 45.3 °F 41.1 °F 29.83 in SSW 16.0 mph 26.0 mph 85 % 0.00 in 153 W/m2
14:16 45.5 °F 41.3 °F 29.83 in SSW 15.0 mph 25.0 mph 85 % 0.00 in 248 W/m2
14:21 45.7 °F 41.1 °F 29.83 in SW 19.0 mph 28.0 mph 84 % 0.00 in 132 W/m2
14:26 45.5 °F 41.3 °F 29.83 in SW 13.0 mph 21.0 mph 85 % 0.00 in 116 W/m2
14:31 45.3 °F 41.1 °F 29.82 in SW 15.0 mph 21.0 mph 85 % 0.00 in 102 W/m2
14:36 45.3 °F 40.8 °F 29.83 in SSW 16.0 mph 24.0 mph 84 % 0.00 in 93 W/m2
14:41 45.3 °F 41.1 °F 29.82 in SW 15.0 mph 23.0 mph 85 % 0.00 in 65 W/m2
14:46 45.3 °F 41.1 °F 29.82 in SSW 15.0 mph 22.0 mph 85 % 0.00 in 56 W/m2
14:51 45.3 °F 41.1 °F 29.82 in SSW 14.0 mph 26.0 mph 85 % 0.00 in 44 W/m2
14:56 45.3 °F 41.1 °F 29.82 in SSW 10.0 mph 18.0 mph 85 % 0.00 in 37 W/m2
15:01 45.3 °F 41.1 °F 29.82 in SSW 6.0 mph 11.0 mph 85 % 0.00 in 35 W/m2
15:06 45.3 °F 41.1 °F 29.82 in South 8.0 mph 15.0 mph 85 % 0.00 in 33 W/m2
15:11 45.3 °F 41.1 °F 29.82 in SSW 10.0 mph 16.0 mph 85 % 0.00 in 40 W/m2
15:16 45.3 °F 41.1 °F 29.81 in South 11.0 mph 22.0 mph 85 % 0.00 in 56 W/m2
15:22 45.3 °F 41.1 °F 29.81 in South 11.0 mph 14.0 mph 85 % 0.00 in 111 W/m2
15:27 45.5 °F 41.3 °F 29.81 in South 9.0 mph 13.0 mph 85 % 0.00 in 54 W/m2
15:32 45.7 °F 41.4 °F 29.80 in SSW 6.0 mph 12.0 mph 85 % 0.00 in 49 W/m2
15:37 45.7 °F 41.4 °F 29.80 in South 6.0 mph 9.0 mph 85 % 0.00 in 60 W/m2
15:42 45.7 °F 41.4 °F 29.80 in South 6.0 mph 12.0 mph 85 % 0.00 in 77 W/m2
15:47 45.9 °F 41.9 °F 29.80 in SSW 12.0 mph 19.0 mph 86 % 0.00 in 105 W/m2
15:52 45.9 °F 41.9 °F 29.80 in SSW 14.0 mph 24.0 mph 86 % 0.00 in 88 W/m2
15:57 45.7 °F 41.7 °F 29.79 in SSW 12.0 mph 18.0 mph 86 % 0.00 in 74 W/m2
16:02 45.5 °F 41.9 °F 29.79 in SSW 11.0 mph 16.0 mph 87 % 0.00 in 62 W/m2
16:07 45.3 °F 41.7 °F 29.79 in SW 11.0 mph 20.0 mph 87 % 0.00 in 56 W/m2
16:12 45.3 °F 41.7 °F 29.79 in SSW 11.0 mph 22.0 mph 87 % 0.00 in 49 W/m2
16:17 45.1 °F 41.5 °F 29.78 in SSW 11.0 mph 21.0 mph 87 % 0.00 in 40 W/m2
16:22 45.1 °F 41.5 °F 29.78 in SSW 11.0 mph 18.0 mph 87 % 0.00 in 39 W/m2
16:27 45.0 °F 41.6 °F 29.78 in SSW 13.0 mph 20.0 mph 88 % 0.00 in 30 W/m2
16:32 44.8 °F 41.4 °F 29.78 in SSW 11.0 mph 19.0 mph 88 % 0.00 in 25 W/m2
16:37 44.8 °F 41.4 °F 29.78 in SSW 11.0 mph 16.0 mph 88 % 0.00 in 19 W/m2
16:42 44.6 °F 41.6 °F 29.77 in SW 11.0 mph 20.0 mph 89 % 0.00 in 14 W/m2
16:47 44.6 °F 41.6 °F 29.77 in SSW 11.0 mph 15.0 mph 89 % 0.00 in 12 W/m2
16:52 44.6 °F 41.6 °F 29.76 in SSW 13.0 mph 23.0 mph 89 % 0.00 in 9 W/m2
16:57 44.6 °F 41.6 °F 29.76 in SW 12.0 mph 19.0 mph 89 % 0.00 in 5 W/m2
17:02 44.8 °F 41.7 °F 29.76 in SW 19.0 mph 30.0 mph 89 % 0.00 in 0 W/m2
17:07 44.8 °F 41.7 °F 29.76 in SW 16.0 mph 24.0 mph 89 % 0.00 in 0 W/m2
17:12 44.8 °F 42.0 °F 29.76 in SW 16.0 mph 27.0 mph 90 % 0.00 in 0 W/m2
17:17 44.6 °F 41.8 °F 29.76 in SW 16.0 mph 22.0 mph 90 % 0.00 in 0 W/m2
17:22 44.6 °F 41.8 °F 29.76 in SW 13.0 mph 23.0 mph 90 % 0.00 in 0 W/m2
17:27 44.6 °F 41.8 °F 29.75 in SW 16.0 mph 24.0 mph 90 % 0.00 in 0 W/m2
17:32 44.6 °F 41.8 °F 29.75 in SW 17.0 mph 25.0 mph 90 % 0.00 in 0 W/m2
17:37 44.4 °F 42.0 °F 29.75 in SW 16.0 mph 25.0 mph 91 % 0.00 in 0 W/m2
17:42 44.4 °F 42.0 °F 29.75 in SW 17.0 mph 26.0 mph 91 % 0.00 in 0 W/m2
17:47 44.4 °F 42.0 °F 29.75 in SW 19.0 mph 27.0 mph 91 % 0.00 in 0 W/m2
17:52 44.4 °F 42.2 °F 29.75 in SW 16.0 mph 22.0 mph 92 % 0.00 in 0 W/m2
17:57 44.4 °F 42.2 °F 29.75 in SW 18.0 mph 28.0 mph 92 % 0.00 in 0 W/m2
18:02 44.2 °F 42.1 °F 29.74 in SW 14.0 mph 23.0 mph 92 % 0.00 in 0 W/m2
18:07 44.2 °F 42.1 °F 29.74 in SSW 16.0 mph 25.0 mph 92 % 0.00 in 0 W/m2
18:12 44.2 °F 42.1 °F 29.74 in SW 15.0 mph 21.0 mph 92 % 0.00 in 0 W/m2
18:17 44.2 °F 42.1 °F 29.74 in SSW 19.0 mph 30.0 mph 92 % 0.00 in 0 W/m2
18:22 44.2 °F 42.1 °F 29.74 in SW 17.0 mph 24.0 mph 92 % 0.00 in 0 W/m2
18:27 44.2 °F 42.1 °F 29.74 in SSW 17.0 mph 26.0 mph 92 % 0.00 in 0 W/m2
18:32 44.4 °F 42.2 °F 29.74 in SSW 17.0 mph 26.0 mph 92 % 0.00 in 0 W/m2
18:37 44.2 °F 42.1 °F 29.74 in SW 17.0 mph 26.0 mph 92 % 0.00 in 0 W/m2
18:42 44.4 °F 42.2 °F 29.74 in SW 18.0 mph 27.0 mph 92 % 0.00 in 0 W/m2
18:47 44.4 °F 42.2 °F 29.73 in SSW 17.0 mph 26.0 mph 92 % 0.00 in 0 W/m2
18:52 44.4 °F 42.2 °F 29.73 in SW 12.0 mph 21.0 mph 92 % 0.00 in 0 W/m2
18:53 44.4 °F 42.2 °F 29.73 in SSW 12.0 mph 21.0 mph 92 % 0.00 in 0 W/m2
18:58 44.4 °F 42.2 °F 29.73 in SSW 15.0 mph 28.0 mph 92 % 0.00 in 0 W/m2
19:03 44.4 °F 42.2 °F 29.73 in SW 13.0 mph 21.0 mph 92 % 0.00 in 0 W/m2
19:08 44.4 °F 42.2 °F 29.73 in SSW 12.0 mph 26.0 mph 92 % 0.00 in 0 W/m2
19:13 44.6 °F 42.4 °F 29.73 in SSW 18.0 mph 29.0 mph 92 % 0.00 in 0 W/m2
19:18 44.8 °F 42.3 °F 29.72 in SSW 15.0 mph 24.0 mph 91 % 0.00 in 0 W/m2
19:23 44.8 °F 42.3 °F 29.72 in SW 14.0 mph 24.0 mph 91 % 0.00 in 0 W/m2
19:28 44.8 °F 42.3 °F 29.72 in SSW 14.0 mph 23.0 mph 91 % 0.00 in 0 W/m2
19:33 44.8 °F 42.3 °F 29.72 in SSW 13.0 mph 20.0 mph 91 % 0.00 in 0 W/m2
19:38 44.8 °F 42.3 °F 29.72 in SSW 15.0 mph 28.0 mph 91 % 0.00 in 0 W/m2
19:43 44.4 °F 42.2 °F 29.72 in SSW 13.0 mph 19.0 mph 92 % 0.00 in 0 W/m2
19:48 44.4 °F 42.2 °F 29.72 in SSW 10.0 mph 15.0 mph 92 % 0.00 in 0 W/m2
19:53 44.2 °F 42.3 °F 29.72 in SSW 14.0 mph 25.0 mph 93 % 0.01 in 0 W/m2
19:58 44.2 °F 42.3 °F 29.72 in SSW 14.0 mph 22.0 mph 93 % 0.01 in 0 W/m2
20:03 44.2 °F 42.3 °F 29.72 in SSW 10.0 mph 16.0 mph 93 % 0.02 in 0 W/m2
20:08 44.2 °F 42.3 °F 29.71 in SSW 13.0 mph 24.0 mph 93 % 0.03 in 0 W/m2
20:13 44.2 °F 42.3 °F 29.71 in SSW 12.0 mph 21.0 mph 93 % 0.04 in 0 W/m2
20:18 44.2 °F 42.3 °F 29.71 in SSW 13.0 mph 20.0 mph 93 % 0.05 in 0 W/m2
20:23 44.2 °F 42.3 °F 29.70 in SSW 11.0 mph 19.0 mph 93 % 0.06 in 0 W/m2
20:28 44.2 °F 42.3 °F 29.70 in South 13.0 mph 22.0 mph 93 % 0.07 in 0 W/m2
20:33 44.2 °F 42.3 °F 29.70 in SSW 12.0 mph 16.0 mph 93 % 0.09 in 0 W/m2
20:38 44.2 °F 42.3 °F 29.70 in South 12.0 mph 23.0 mph 93 % 0.09 in 0 W/m2
20:44 44.2 °F 42.3 °F 29.70 in SSW 11.0 mph 18.0 mph 93 % 0.09 in 0 W/m2
20:49 44.2 °F 42.3 °F 29.70 in SSW 13.0 mph 21.0 mph 93 % 0.09 in 0 W/m2
20:54 44.2 °F 42.3 °F 29.69 in SSW 9.0 mph 13.0 mph 93 % 0.09 in 0 W/m2
20:59 44.2 °F 42.3 °F 29.69 in SSW 12.0 mph 20.0 mph 93 % 0.09 in 0 W/m2
21:04 44.2 °F 42.3 °F 29.69 in SSW 11.0 mph 15.0 mph 93 % 0.08 in 0 W/m2
21:09 44.2 °F 42.3 °F 29.68 in SSW 11.0 mph 15.0 mph 93 % 0.07 in 0 W/m2
21:14 44.2 °F 42.3 °F 29.69 in SSW 10.0 mph 18.0 mph 93 % 0.07 in 0 W/m2
21:19 44.2 °F 42.3 °F 29.69 in SSW 10.0 mph 19.0 mph 93 % 0.06 in 0 W/m2
21:24 44.4 °F 42.5 °F 29.68 in SSW 11.0 mph 19.0 mph 93 % 0.05 in 0 W/m2
21:29 44.4 °F 42.5 °F 29.68 in SSW 11.0 mph 22.0 mph 93 % 0.04 in 0 W/m2
21:34 44.4 °F 42.5 °F 29.69 in SSW 13.0 mph 22.0 mph 93 % 0.03 in 0 W/m2
21:39 44.4 °F 42.5 °F 29.68 in SSW 11.0 mph 21.0 mph 93 % 0.04 in 0 W/m2
21:44 44.4 °F 42.5 °F 29.68 in SSW 10.0 mph 18.0 mph 93 % 0.03 in 0 W/m2
21:49 44.6 °F 42.7 °F 29.68 in SSW 11.0 mph 18.0 mph 93 % 0.04 in 0 W/m2
21:54 44.6 °F 42.7 °F 29.68 in SSW 10.0 mph 14.0 mph 93 % 0.03 in 0 W/m2
21:59 44.4 °F 42.2 °F 29.68 in SSW 8.0 mph 12.0 mph 92 % 0.03 in 0 W/m2
22:04 44.4 °F 42.2 °F 29.67 in SSW 10.0 mph 15.0 mph 92 % 0.04 in 0 W/m2
22:09 44.4 °F 42.5 °F 29.67 in SSW 11.0 mph 15.0 mph 93 % 0.04 in 0 W/m2
22:14 44.4 °F 42.5 °F 29.67 in SSW 10.0 mph 18.0 mph 93 % 0.03 in 0 W/m2
22:19 44.4 °F 42.5 °F 29.67 in SW 10.0 mph 13.0 mph 93 % 0.04 in 0 W/m2
22:24 44.4 °F 42.5 °F 29.67 in SSW 10.0 mph 14.0 mph 93 % 0.04 in 0 W/m2
22:29 44.4 °F 42.5 °F 29.67 in SSW 12.0 mph 21.0 mph 93 % 0.03 in 0 W/m2
22:34 44.4 °F 42.5 °F 29.66 in SSW 12.0 mph 21.0 mph 93 % 0.03 in 0 W/m2
22:39 44.4 °F 42.5 °F 29.66 in SSW 10.0 mph 13.0 mph 93 % 0.02 in 0 W/m2
22:44 44.4 °F 42.5 °F 29.66 in SSW 9.0 mph 13.0 mph 93 % 0.02 in 0 W/m2
22:49 44.4 °F 42.5 °F 29.66 in SSW 9.0 mph 13.0 mph 93 % 0.02 in 0 W/m2
22:54 44.4 °F 42.5 °F 29.66 in SSW 8.0 mph 12.0 mph 93 % 0.02 in 0 W/m2
22:59 44.4 °F 42.5 °F 29.66 in SSW 9.0 mph 16.0 mph 93 % 0.02 in 0 W/m2
23:04 44.4 °F 42.5 °F 29.66 in SW 9.0 mph 15.0 mph 93 % 0.01 in 0 W/m2
23:09 44.4 °F 42.5 °F 29.66 in SSW 10.0 mph 14.0 mph 93 % 0.01 in 0 W/m2
23:14 44.4 °F 42.5 °F 29.65 in SW 12.0 mph 16.0 mph 93 % 0.01 in 0 W/m2
23:19 44.6 °F 42.7 °F 29.65 in SW 10.0 mph 13.0 mph 93 % 0.00 in 0 W/m2
23:24 44.6 °F 42.4 °F 29.65 in SW 10.0 mph 13.0 mph 92 % 0.00 in 0 W/m2
23:29 44.6 °F 42.4 °F 29.65 in SW 9.0 mph 12.0 mph 92 % 0.00 in 0 W/m2
23:35 44.6 °F 42.4 °F 29.65 in SW 11.0 mph 16.0 mph 92 % 0.00 in 0 W/m2
23:40 44.6 °F 42.4 °F 29.65 in SW 12.0 mph 18.0 mph 92 % 0.00 in 0 W/m2
23:45 44.6 °F 42.4 °F 29.65 in SW 11.0 mph 19.0 mph 92 % 0.00 in 0 W/m2
23:50 44.6 °F 42.4 °F 29.64 in SW 11.0 mph 18.0 mph 92 % 0.00 in 0 W/m2
23:55 44.6 °F 42.4 °F 29.64 in SW 11.0 mph 16.0 mph 92 % 0.00 in 0 W/m2
Delerius-Weather
Compliments of Weather Underground - 2.25 mb

Data updates at regular intervals.